createdAt,value
2019-05-05T00:02:04.460Z,100147.84
2019-05-05T00:04:54.748Z,100143.75
2019-05-05T00:07:30.777Z,100145.70
2019-05-05T00:10:04.614Z,100149.23
2019-05-05T00:12:56.763Z,100148.28
2019-05-05T00:15:49.992Z,100153.82
2019-05-05T00:18:26.787Z,100152.95
2019-05-05T00:20:59.907Z,100151.77
2019-05-05T00:23:34.574Z,100146.83
2019-05-05T00:26:07.509Z,100148.30
2019-05-05T00:28:40.888Z,100151.81
2019-05-05T00:31:15.748Z,100152.64
2019-05-05T00:33:49.700Z,100155.41
2019-05-05T00:36:24.422Z,100158.21
2019-05-05T00:38:57.916Z,100162.03
2019-05-05T00:41:30.688Z,100162.35
2019-05-05T00:44:04.801Z,100163.03
2019-05-05T00:47:09.287Z,100167.24
2019-05-05T00:49:49.055Z,100169.17
2019-05-05T00:52:24.437Z,100171.45
2019-05-05T00:54:57.220Z,100176.66
2019-05-05T00:57:30.249Z,100181.89
2019-05-05T01:00:12.831Z,100182.23
2019-05-05T01:02:47.696Z,100177.22
2019-05-05T01:05:39.076Z,100176.44
2019-05-05T01:08:15.524Z,100175.11
2019-05-05T01:10:48.068Z,100177.27
2019-05-05T01:13:21.075Z,100175.05
2019-05-05T01:15:54.706Z,100179.09
2019-05-05T01:18:27.245Z,100177.97
2019-05-05T01:21:00.076Z,100181.92
2019-05-05T01:23:34.774Z,100182.23
2019-05-05T01:26:09.784Z,100184.57
2019-05-05T01:28:44.729Z,100183.44
2019-05-05T01:31:19.590Z,100179.53
2019-05-05T01:34:15.213Z,100184.02
2019-05-05T01:37:09.627Z,100184.75
2019-05-05T01:40:04.936Z,100183.37
2019-05-05T01:42:51.031Z,100187.22
2019-05-05T01:45:25.195Z,100185.58
2019-05-05T01:48:00.819Z,100188.80
2019-05-05T01:50:34.947Z,100190.17
2019-05-05T01:53:08.307Z,100191.46
2019-05-05T01:55:41.183Z,100193.30
2019-05-05T01:58:15.294Z,100195.77
2019-05-05T02:00:48.179Z,100194.99
2019-05-05T02:03:20.895Z,100194.30
2019-05-05T02:05:54.571Z,100200.25
2019-05-05T02:08:27.272Z,100195.22
2019-05-05T02:11:00.546Z,100200.55
2019-05-05T02:13:34.647Z,100196.78
2019-05-05T02:16:08.321Z,100195.44
2019-05-05T02:18:41.340Z,100194.58
2019-05-05T02:21:14.337Z,100194.17
2019-05-05T02:23:47.064Z,100201.42
2019-05-05T02:26:20.259Z,100207.16
2019-05-05T02:29:05.142Z,100205.51
2019-05-05T02:31:58.511Z,100209.17
2019-05-05T02:34:36.022Z,100201.39
2019-05-05T02:37:08.948Z,100204.55
2019-05-05T02:39:48.274Z,100204.78
2019-05-05T02:42:30.041Z,100206.78
2019-05-05T02:45:06.688Z,100205.69
2019-05-05T02:47:46.833Z,100211.55
2019-05-05T02:50:19.429Z,100204.72
2019-05-05T02:52:53.542Z,100203.61
2019-05-05T02:55:26.415Z,100205.12
2019-05-05T02:57:59.210Z,100204.16
2019-05-05T03:00:37.900Z,100206.14
2019-05-05T03:03:11.056Z,100203.37
2019-05-05T03:05:43.583Z,100208.80
2019-05-05T03:08:18.437Z,100205.61
2019-05-05T03:10:51.074Z,100203.84
2019-05-05T03:13:24.329Z,100210.84
2019-05-05T03:16:16.571Z,100211.71
2019-05-05T03:18:49.119Z,100211.92
2019-05-05T03:21:21.807Z,100208.86
2019-05-05T03:23:54.939Z,100211.38
2019-05-05T03:26:27.435Z,100209.38
2019-05-05T03:29:04.788Z,100206.25
2019-05-05T03:31:38.163Z,100202.09
2019-05-05T03:34:10.809Z,100204.21
2019-05-05T03:36:44.168Z,100210.95
2019-05-05T03:39:24.029Z,100216.18
2019-05-05T03:42:03.636Z,100222.20
2019-05-05T03:44:43.965Z,100226.36
2019-05-05T03:47:17.275Z,100225.78
2019-05-05T03:49:49.839Z,100219.36
2019-05-05T03:52:24.470Z,100219.59
2019-05-05T03:54:57.182Z,100215.73
2019-05-05T03:57:29.743Z,100214.22
2019-05-05T04:00:06.239Z,100220.98
2019-05-05T04:02:53.746Z,100220.08
2019-05-05T04:05:34.032Z,100221.67
2019-05-05T04:08:07.298Z,100227.24
2019-05-05T04:10:40.642Z,100235.56
2019-05-05T04:13:13.938Z,100240.14
2019-05-05T04:16:07.824Z,100241.26
2019-05-05T04:18:45.550Z,100244.56
2019-05-05T04:21:30.313Z,100246.61
2019-05-05T04:24:07.687Z,100249.23
2019-05-05T04:26:40.617Z,100244.88
2019-05-05T04:29:13.963Z,100249.77
2019-05-05T04:31:46.582Z,100253.04
2019-05-05T04:34:19.850Z,100255.25
2019-05-05T04:36:54.501Z,100258.69
2019-05-05T04:39:27.137Z,100261.95
2019-05-05T04:42:00.175Z,100263.02
2019-05-05T04:44:34.720Z,100260.32
2019-05-05T04:47:17.258Z,100268.27
2019-05-05T04:50:00.641Z,100266.86
2019-05-05T04:52:35.180Z,100267.44
2019-05-05T04:55:08.334Z,100272.98
2019-05-05T04:57:40.842Z,100278.00
2019-05-05T05:00:15.716Z,100276.58
2019-05-05T05:02:59.275Z,100279.57
2019-05-05T05:05:53.604Z,100281.64
2019-05-05T05:08:27.322Z,100286.20
2019-05-05T05:11:00.319Z,100290.19
2019-05-05T05:13:34.761Z,100292.02
2019-05-05T05:16:07.496Z,100292.94
2019-05-05T05:18:41.047Z,100290.88
2019-05-05T05:21:14.478Z,100301.95
2019-05-05T05:23:47.200Z,100304.05
2019-05-05T05:26:21.044Z,100308.84
2019-05-05T05:28:55.260Z,100309.69
2019-05-05T05:31:29.980Z,100312.73
2019-05-05T05:34:05.604Z,100311.64
2019-05-05T05:36:38.161Z,100310.89
2019-05-05T05:39:26.963Z,100313.09
2019-05-05T05:41:59.718Z,100315.47
2019-05-05T05:44:45.795Z,100320.59
2019-05-05T05:47:38.665Z,100323.12
2019-05-05T05:50:30.528Z,100331.46
2019-05-05T05:53:04.751Z,100334.34
2019-05-05T05:55:37.423Z,100346.47
2019-05-05T05:58:10.249Z,100337.20
2019-05-05T06:00:44.219Z,100340.02
2019-05-05T06:03:17.039Z,100345.31
2019-05-05T06:05:51.043Z,100347.29
2019-05-05T06:08:24.419Z,100342.83
2019-05-05T06:10:56.997Z,100344.16
2019-05-05T06:13:30.276Z,100348.31
2019-05-05T06:16:04.331Z,100354.05
2019-05-05T06:18:37.065Z,100356.16
2019-05-05T06:21:10.065Z,100361.39
2019-05-05T06:23:43.964Z,100364.81
2019-05-05T06:26:16.827Z,100361.00
2019-05-05T06:28:49.632Z,100368.72
2019-05-05T06:31:24.538Z,100372.58
2019-05-05T06:33:58.231Z,100372.20
2019-05-05T06:36:31.465Z,100371.27
2019-05-05T06:39:06.679Z,100381.34
2019-05-05T06:41:51.015Z,100377.77
2019-05-05T06:44:33.674Z,100379.36
2019-05-05T06:47:09.395Z,100390.34
2019-05-05T06:49:43.783Z,100387.03
2019-05-05T06:52:16.579Z,100388.91
2019-05-05T06:54:49.431Z,100390.58
2019-05-05T06:57:23.603Z,100387.33
2019-05-05T06:59:56.802Z,100390.53
2019-05-05T07:02:34.248Z,100390.73
2019-05-05T07:05:07.083Z,100387.70
2019-05-05T07:07:40.311Z,100387.43
2019-05-05T07:10:14.045Z,100388.06
2019-05-05T07:12:48.028Z,100391.98
2019-05-05T07:15:20.607Z,100391.97
2019-05-05T07:17:56.708Z,100387.61
2019-05-05T07:20:30.536Z,100389.23
2019-05-05T07:23:05.338Z,100381.84
2019-05-05T07:25:42.769Z,100384.47
2019-05-05T07:28:18.672Z,100382.09
2019-05-05T07:30:51.770Z,100389.31
2019-05-05T07:33:25.683Z,100390.31
2019-05-05T07:36:06.000Z,100393.23
2019-05-05T07:38:40.549Z,100394.79
2019-05-05T07:41:14.427Z,100392.48
2019-05-05T07:43:48.657Z,100389.39
2019-05-05T07:46:23.991Z,100392.63
2019-05-05T07:48:57.797Z,100389.73
2019-05-05T07:51:30.927Z,100385.14
2019-05-05T07:54:03.927Z,100386.75
2019-05-05T07:56:37.803Z,100389.45
2019-05-05T07:59:10.506Z,100386.97
2019-05-05T08:01:44.318Z,100384.02
2019-05-05T08:04:19.605Z,100383.58
2019-05-05T08:06:53.892Z,100387.09
2019-05-05T08:09:27.824Z,100386.55
2019-05-05T08:12:01.390Z,100385.48
2019-05-05T08:14:34.948Z,100392.98
2019-05-05T08:17:25.937Z,100393.33
2019-05-05T08:20:06.748Z,100390.72
2019-05-05T08:22:40.453Z,100389.94
2019-05-05T08:25:37.468Z,100392.45
2019-05-05T08:28:34.500Z,100391.11
2019-05-05T08:31:16.739Z,100395.38
2019-05-05T08:33:54.700Z,100391.66
2019-05-05T08:36:28.212Z,100393.83
2019-05-05T08:39:01.269Z,100393.02
2019-05-05T08:41:37.752Z,100392.06
2019-05-05T08:44:10.530Z,100389.38
2019-05-05T08:46:44.617Z,100389.04
2019-05-05T08:49:19.465Z,100393.92
2019-05-05T08:51:54.720Z,100393.16
2019-05-05T08:54:28.240Z,100394.34
2019-05-05T08:57:00.841Z,100389.00
2019-05-05T08:59:34.799Z,100397.49
2019-05-05T09:02:08.815Z,100390.83
2019-05-05T09:04:47.309Z,100392.03
2019-05-05T09:07:19.941Z,100401.33
2019-05-05T09:09:54.660Z,100399.81
2019-05-05T09:12:29.293Z,100397.30
2019-05-05T09:15:04.652Z,100401.75
2019-05-05T09:17:38.824Z,100398.53
2019-05-05T09:20:15.339Z,100401.29
2019-05-05T09:22:48.400Z,100404.75
2019-05-05T09:25:26.864Z,100399.34
2019-05-05T09:28:06.171Z,100399.31
2019-05-05T09:30:44.264Z,100393.37
2019-05-05T09:33:18.601Z,100393.66
2019-05-05T09:35:54.169Z,100387.11
2019-05-05T09:38:29.855Z,100388.20
2019-05-05T09:41:03.792Z,100388.03
2019-05-05T09:43:36.660Z,100387.70
2019-05-05T09:46:14.224Z,100386.44
2019-05-05T09:48:48.624Z,100385.07
2019-05-05T09:51:24.034Z,100386.25
2019-05-05T09:54:10.700Z,100390.52
2019-05-05T09:56:49.032Z,100391.27
2019-05-05T09:59:24.745Z,100394.30
2019-05-05T10:02:00.921Z,100397.81
2019-05-05T10:04:36.669Z,100408.51
2019-05-05T10:07:09.528Z,100406.14
2019-05-05T10:09:44.051Z,100409.72
2019-05-05T10:12:17.127Z,100413.77
2019-05-05T10:14:54.247Z,100413.77
2019-05-05T10:17:27.289Z,100416.05
2019-05-05T10:20:01.194Z,100414.20
2019-05-05T10:22:34.390Z,100420.51
2019-05-05T10:25:13.883Z,100416.58
2019-05-05T10:27:48.823Z,100417.86
2019-05-05T10:30:24.703Z,100419.22
2019-05-05T10:32:57.656Z,100413.50
2019-05-05T10:35:31.311Z,100414.34
2019-05-05T10:38:04.843Z,100409.84
2019-05-05T10:40:38.446Z,100409.82
2019-05-05T10:43:14.666Z,100413.20
2019-05-05T10:45:49.629Z,100415.34
2019-05-05T10:48:24.790Z,100416.20
2019-05-05T10:50:57.629Z,100420.86
2019-05-05T10:53:30.620Z,100417.03
2019-05-05T10:56:04.413Z,100420.83
2019-05-05T10:58:40.400Z,100418.91
2019-05-05T11:01:14.509Z,100419.75
2019-05-05T11:03:47.815Z,100419.22
2019-05-05T11:06:21.595Z,100421.08
2019-05-05T11:08:57.324Z,100420.67
2019-05-05T11:11:37.606Z,100417.17
2019-05-05T11:14:16.671Z,100439.20
2019-05-05T11:16:50.630Z,100452.80
2019-05-05T11:19:24.173Z,100449.76
2019-05-05T11:21:58.793Z,100434.75
2019-05-05T11:24:34.667Z,100432.16
2019-05-05T11:27:09.378Z,100440.23
2019-05-05T11:29:50.909Z,100446.20
2019-05-05T11:32:33.734Z,100444.60
2019-05-05T11:35:10.625Z,100440.87
2019-05-05T11:37:46.237Z,100442.11
2019-05-05T11:40:32.779Z,100432.79
2019-05-05T11:43:07.786Z,100433.22
2019-05-05T11:45:40.705Z,100432.02
2019-05-05T11:48:14.916Z,100428.04
2019-05-05T11:50:48.768Z,100426.72
2019-05-05T11:53:22.307Z,100422.94
2019-05-05T11:55:55.258Z,100418.91
2019-05-05T11:58:27.926Z,100416.47
2019-05-05T12:01:03.576Z,100419.56
2019-05-05T12:03:38.003Z,100418.00
2019-05-05T12:06:14.714Z,100418.87
2019-05-05T12:08:49.057Z,100416.12
2019-05-05T12:11:24.040Z,100406.47
2019-05-05T12:13:59.325Z,100400.28
2019-05-05T12:16:34.718Z,100404.24
2019-05-05T12:19:14.843Z,100410.53
2019-05-05T12:21:47.823Z,100408.98
2019-05-05T12:24:29.312Z,100415.50
2019-05-05T12:27:24.641Z,100425.64
2019-05-05T12:30:04.060Z,100427.86
2019-05-05T12:32:37.605Z,100435.70
2019-05-05T12:35:11.895Z,100440.00
2019-05-05T12:37:47.475Z,100445.16
2019-05-05T12:40:21.037Z,100460.73
2019-05-05T12:42:54.345Z,100463.25
2019-05-05T12:45:34.578Z,100464.05
2019-05-05T12:48:16.525Z,100466.08
2019-05-05T12:50:50.589Z,100464.22
2019-05-05T12:53:24.196Z,100464.91
2019-05-05T12:55:56.901Z,100466.34
2019-05-05T12:58:30.591Z,100463.80
2019-05-05T13:01:10.671Z,100457.70
2019-05-05T13:03:44.435Z,100458.05
2019-05-05T13:06:19.096Z,100452.25
2019-05-05T13:08:52.914Z,100454.91
2019-05-05T13:11:26.134Z,100452.58
2019-05-05T13:13:58.687Z,100445.55
2019-05-05T13:16:32.882Z,100445.62
2019-05-05T13:19:15.919Z,100446.53
2019-05-05T13:21:55.195Z,100447.35
2019-05-05T13:24:44.424Z,100443.59
2019-05-05T13:27:24.873Z,100446.83
2019-05-05T13:29:59.045Z,100443.77
2019-05-05T13:32:33.574Z,100437.84
2019-05-05T13:35:09.944Z,100435.16
2019-05-05T13:37:48.101Z,100432.06
2019-05-05T13:40:23.937Z,100435.59
2019-05-05T13:42:57.202Z,100427.98
2019-05-05T13:45:41.167Z,100412.79
2019-05-05T13:48:14.347Z,100415.42
2019-05-05T13:50:50.573Z,100411.20
2019-05-05T13:53:26.243Z,100413.58
2019-05-05T13:56:11.033Z,100402.14
2019-05-05T13:58:45.168Z,100397.61
2019-05-05T14:01:23.556Z,100397.31
2019-05-05T14:03:59.030Z,100395.77
2019-05-05T14:06:34.620Z,100392.78
2019-05-05T14:09:09.704Z,100399.02
2019-05-05T14:11:44.684Z,100394.70
2019-05-05T14:14:21.382Z,100385.73
2019-05-05T14:16:54.531Z,100378.56
2019-05-05T14:19:27.392Z,100381.39
2019-05-05T14:22:04.448Z,100383.33
2019-05-05T14:24:44.483Z,100387.52
2019-05-05T14:27:19.368Z,100396.09
2019-05-05T14:30:16.619Z,100397.86
2019-05-05T14:33:04.005Z,100393.31
2019-05-05T14:36:00.910Z,100394.14
2019-05-05T14:38:58.125Z,100389.52
2019-05-05T14:41:32.610Z,100391.64
2019-05-05T14:44:07.362Z,100390.70
2019-05-05T14:46:40.513Z,100391.58
2019-05-05T14:49:14.045Z,100396.61
2019-05-05T14:51:48.222Z,100398.81
2019-05-05T14:54:27.922Z,100398.25
2019-05-05T14:57:04.506Z,100389.77
2019-05-05T14:59:41.704Z,100387.89
2019-05-05T15:02:15.959Z,100384.28
2019-05-05T15:04:50.868Z,100388.67
2019-05-05T15:07:39.402Z,100394.09
2019-05-05T15:10:18.865Z,100390.07
2019-05-05T15:12:55.657Z,100395.31
2019-05-05T15:15:30.325Z,100397.95
2019-05-05T15:18:04.042Z,100401.78
2019-05-05T15:20:48.266Z,100418.48
2019-05-05T15:23:23.851Z,100416.48
2019-05-05T15:25:57.226Z,100420.80
2019-05-05T15:28:33.504Z,100418.62
2019-05-05T15:31:07.789Z,100415.47
2019-05-05T15:33:41.207Z,100418.25
2019-05-05T15:36:15.650Z,100412.68
2019-05-05T15:38:48.465Z,100413.70
2019-05-05T15:41:24.180Z,100414.61
2019-05-05T15:43:57.258Z,100410.81
2019-05-05T15:46:33.963Z,100410.47
2019-05-05T15:49:09.490Z,100413.16
2019-05-05T15:51:44.313Z,100401.50
2019-05-05T15:54:20.024Z,100406.84
2019-05-05T15:57:05.610Z,100405.63
2019-05-05T15:59:43.662Z,100405.13
2019-05-05T16:02:23.882Z,100406.49
2019-05-05T16:05:01.397Z,100411.23
2019-05-05T16:07:34.633Z,100418.42
2019-05-05T16:10:09.731Z,100415.72
2019-05-05T16:12:45.049Z,100415.41
2019-05-05T16:15:41.825Z,100416.77
2019-05-05T16:18:21.042Z,100421.75
2019-05-05T16:21:01.116Z,100423.73
2019-05-05T16:23:38.612Z,100422.77
2019-05-05T16:26:11.677Z,100428.04
2019-05-05T16:28:48.506Z,100426.31
2019-05-05T16:31:21.047Z,100420.83
2019-05-05T16:33:55.685Z,100422.01
2019-05-05T16:36:30.886Z,100424.69
2019-05-05T16:39:07.220Z,100422.10
2019-05-05T16:41:39.982Z,100422.50
2019-05-05T16:44:15.920Z,100422.20
2019-05-05T16:46:50.515Z,100421.88
2019-05-05T16:49:23.418Z,100420.09
2019-05-05T16:52:15.154Z,100425.03
2019-05-05T16:54:55.827Z,100418.39
2019-05-05T16:57:33.881Z,100419.25
2019-05-05T17:00:09.102Z,100423.55
2019-05-05T17:02:41.670Z,100421.08
2019-05-05T17:05:16.751Z,100415.39
2019-05-05T17:07:50.290Z,100420.18
2019-05-05T17:10:25.122Z,100422.45
2019-05-05T17:13:06.709Z,100418.77
2019-05-05T17:16:03.966Z,100422.25
2019-05-05T17:18:44.906Z,100423.84
2019-05-05T17:21:22.085Z,100424.73
2019-05-05T17:23:59.944Z,100425.58
2019-05-05T17:26:35.531Z,100424.94
2019-05-05T17:29:09.144Z,100425.45
2019-05-05T17:31:44.409Z,100425.39
2019-05-05T17:34:21.850Z,100425.08
2019-05-05T17:36:56.312Z,100429.05
2019-05-05T17:39:35.147Z,100424.33
2019-05-05T17:42:27.393Z,100420.34
2019-05-05T17:45:37.442Z,100425.48
2019-05-05T17:48:30.561Z,100424.86
2019-05-05T17:51:13.865Z,100425.11
2019-05-05T17:53:57.979Z,100426.53
2019-05-05T17:56:33.483Z,100428.00
2019-05-05T17:59:08.306Z,100425.30
2019-05-05T18:01:41.718Z,100431.86
2019-05-05T18:04:18.394Z,100437.23
2019-05-05T18:07:04.109Z,100445.39
2019-05-05T18:09:43.909Z,100451.50
2019-05-05T18:12:37.902Z,100450.33
2019-05-05T18:15:26.917Z,100450.33
2019-05-05T18:18:00.960Z,100454.52
2019-05-05T18:20:41.577Z,100462.41
2019-05-05T18:23:14.164Z,100462.19
2019-05-05T18:25:46.726Z,100459.58
2019-05-05T18:28:21.181Z,100459.49
2019-05-05T18:30:53.990Z,100459.33
2019-05-05T18:33:27.148Z,100463.23
2019-05-05T18:36:04.303Z,100458.36
2019-05-05T18:38:37.876Z,100463.72
2019-05-05T18:41:29.966Z,100462.14
2019-05-05T18:44:13.902Z,100465.31
2019-05-05T18:47:06.557Z,100467.09
2019-05-05T18:49:41.415Z,100471.63
2019-05-05T18:52:14.164Z,100468.20
2019-05-05T18:54:48.279Z,100470.93
2019-05-05T18:57:21.680Z,100474.27
2019-05-05T18:59:59.481Z,100472.11
2019-05-05T19:02:47.198Z,100478.06
2019-05-05T19:05:34.329Z,100477.42
2019-05-05T19:08:14.186Z,100479.22
2019-05-05T19:10:54.073Z,100483.78
2019-05-05T19:13:28.229Z,100483.68
2019-05-05T19:16:03.606Z,100484.04
2019-05-05T19:18:39.467Z,100487.08
2019-05-05T19:21:22.418Z,100488.67
2019-05-05T19:23:57.934Z,100496.16
2019-05-05T19:26:35.596Z,100499.09
2019-05-05T19:29:09.116Z,100498.30
2019-05-05T19:31:43.876Z,100506.95
2019-05-05T19:34:17.831Z,100503.05
2019-05-05T19:36:54.641Z,100505.05
2019-05-05T19:39:34.449Z,100505.72
2019-05-05T19:42:09.396Z,100507.47
2019-05-05T19:44:43.802Z,100513.92
2019-05-05T19:47:20.817Z,100510.60
2019-05-05T19:50:01.865Z,100508.69
2019-05-05T19:52:34.904Z,100508.37
2019-05-05T19:55:09.081Z,100511.80
2019-05-05T19:57:49.302Z,100514.36
2019-05-05T20:00:35.150Z,100517.66
2019-05-05T20:03:17.452Z,100517.99
2019-05-05T20:05:54.093Z,100522.04
2019-05-05T20:08:39.783Z,100513.77
2019-05-05T20:11:14.371Z,100519.41
2019-05-05T20:13:47.062Z,100515.72
2019-05-05T20:16:55.834Z,100519.97
2019-05-05T20:19:34.418Z,100522.02
2019-05-05T20:22:07.962Z,100526.80
2019-05-05T20:24:41.489Z,100526.73
2019-05-05T20:27:44.103Z,100526.19
2019-05-05T20:30:25.023Z,100529.03
2019-05-05T20:33:07.487Z,100526.86
2019-05-05T20:35:53.739Z,100532.30
2019-05-05T20:38:33.331Z,100536.33
2019-05-05T20:41:10.784Z,100532.16
2019-05-05T20:43:46.481Z,100534.75
2019-05-05T20:46:23.527Z,100540.86
2019-05-05T20:48:59.369Z,100541.03
2019-05-05T20:51:33.977Z,100540.98
2019-05-05T20:54:06.904Z,100539.88
2019-05-05T20:56:59.235Z,100544.86
2019-05-05T20:59:34.223Z,100550.77
2019-05-05T21:02:07.555Z,100558.67
2019-05-05T21:04:48.870Z,100549.24
2019-05-05T21:07:26.364Z,100552.98
2019-05-05T21:10:05.853Z,100554.23
2019-05-05T21:12:50.294Z,100554.55
2019-05-05T21:15:24.690Z,100555.10
2019-05-05T21:17:57.602Z,100548.34
2019-05-05T21:20:34.870Z,100555.33
2019-05-05T21:23:31.493Z,100548.80
2019-05-05T21:26:11.494Z,100554.27
2019-05-05T21:28:47.345Z,100552.67
2019-05-05T21:31:30.280Z,100554.44
2019-05-05T21:34:03.864Z,100552.39
2019-05-05T21:39:54.629Z,100558.94
2019-05-05T21:42:31.215Z,100555.49
2019-05-05T21:45:06.381Z,100561.86
2019-05-05T21:47:39.133Z,100560.05
2019-05-05T21:50:16.415Z,100558.77
2019-05-05T21:52:55.789Z,100560.98
2019-05-05T21:55:43.993Z,100559.45
2019-05-05T21:58:25.354Z,100566.24
2019-05-05T22:01:09.126Z,100564.41
2019-05-05T22:03:45.636Z,100566.68
2019-05-05T22:06:18.199Z,100564.91
2019-05-05T22:09:19.970Z,100567.00
2019-05-05T22:12:04.223Z,100568.38
2019-05-05T22:14:37.769Z,100565.11
2019-05-05T22:17:18.378Z,100566.89
2019-05-05T22:20:04.542Z,100560.88
2019-05-05T22:22:44.861Z,100565.67
2019-05-05T22:25:37.359Z,100570.52
2019-05-05T22:28:09.933Z,100563.07
2019-05-05T22:30:43.825Z,100563.28
2019-05-05T22:33:16.482Z,100560.83
2019-05-05T22:35:49.026Z,100560.80
2019-05-05T22:38:24.634Z,100558.84
2019-05-05T22:40:57.748Z,100555.36
2019-05-05T22:43:30.877Z,100555.79
2019-05-05T22:46:03.681Z,100556.48
2019-05-05T22:48:40.688Z,100554.11
2019-05-05T22:51:16.193Z,100556.45
2019-05-05T22:53:49.252Z,100559.58
2019-05-05T22:56:24.092Z,100558.63
2019-05-05T22:58:59.712Z,100560.77
2019-05-05T23:01:32.619Z,100555.88
2019-05-05T23:04:23.867Z,100558.77
2019-05-05T23:07:03.800Z,100562.02
2019-05-05T23:09:36.640Z,100562.44
2019-05-05T23:12:10.019Z,100559.03
2019-05-05T23:14:43.734Z,100555.85
2019-05-05T23:17:26.189Z,100555.11
2019-05-05T23:20:13.460Z,100552.64
2019-05-05T23:22:57.403Z,100551.89
2019-05-05T23:25:35.855Z,100560.32
2019-05-05T23:28:08.520Z,100553.52
2019-05-05T23:30:44.768Z,100550.68
2019-05-05T23:33:17.688Z,100548.41
2019-05-05T23:35:55.046Z,100556.97
2019-05-05T23:38:35.481Z,100556.82
2019-05-05T23:41:08.191Z,100558.55
2019-05-05T23:43:41.199Z,100555.59
2019-05-05T23:46:14.388Z,100554.61
2019-05-05T23:48:49.300Z,100558.59
2019-05-05T23:51:24.312Z,100556.12
2019-05-05T23:53:57.918Z,100559.81
2019-05-05T23:56:30.587Z,100559.60
2019-05-05T23:59:04.484Z,100561.19
